sensor_id;sensor_type;location;lat;lon;timestamp;temperature;humidity
15636;DHT22;7917;50.818;6.972;2022-07-06T00:01:47;15.60;99.90
15636;DHT22;7917;50.818;6.972;2022-07-06T00:04:16;15.50;99.90
15636;DHT22;7917;50.818;6.972;2022-07-06T00:06:46;15.40;99.90
15636;DHT22;7917;50.818;6.972;2022-07-06T00:09:18;15.30;99.90
15636;DHT22;7917;50.818;6.972;2022-07-06T00:11:50;15.20;1.00
15636;DHT22;7917;50.818;6.972;2022-07-06T00:14:18;15.10;1.00
15636;DHT22;7917;50.818;6.972;2022-07-06T00:16:52;15.00;1.00
15636;DHT22;7917;50.818;6.972;2022-07-06T00:19:21;14.90;1.00
15636;DHT22;7917;50.818;6.972;2022-07-06T00:21:49;14.80;1.00
15636;DHT22;7917;50.818;6.972;2022-07-06T00:24:17;14.70;1.00
15636;DHT22;7917;50.818;6.972;2022-07-06T00:26:45;14.60;1.00
15636;DHT22;7917;50.818;6.972;2022-07-06T00:29:12;14.60;1.00
15636;DHT22;7917;50.818;6.972;2022-07-06T00:31:40;14.60;1.00
15636;DHT22;7917;50.818;6.972;2022-07-06T00:34:23;14.50;99.90
15636;DHT22;7917;50.818;6.972;2022-07-06T00:36:51;14.40;99.90
15636;DHT22;7917;50.818;6.972;2022-07-06T00:39:22;14.40;99.90
15636;DHT22;7917;50.818;6.972;2022-07-06T00:41:56;14.30;99.90
15636;DHT22;7917;50.818;6.972;2022-07-06T00:44:35;14.30;1.00
15636;DHT22;7917;50.818;6.972;2022-07-06T00:47:05;14.20;1.00
15636;DHT22;7917;50.818;6.972;2022-07-06T00:49:36;14.10;1.00
15636;DHT22;7917;50.818;6.972;2022-07-06T00:52:21;14.10;1.00
15636;DHT22;7917;50.818;6.972;2022-07-06T00:54:52;14.00;1.00
15636;DHT22;7917;50.818;6.972;2022-07-06T00:57:22;14.00;1.00
15636;DHT22;7917;50.818;6.972;2022-07-06T00:59:51;13.90;1.00
15636;DHT22;7917;50.818;6.972;2022-07-06T01:02:20;13.80;25.40
15636;DHT22;7917;50.818;6.972;2022-07-06T01:04:51;13.70;99.90
15636;DHT22;7917;50.818;6.972;2022-07-06T01:07:19;13.80;1.90
15636;DHT22;7917;50.818;6.972;2022-07-06T01:09:47;13.80;1.00
15636;DHT22;7917;50.818;6.972;2022-07-06T01:12:19;13.80;1.00
15636;DHT22;7917;50.818;6.972;2022-07-06T01:14:47;13.80;1.00
15636;DHT22;7917;50.818;6.972;2022-07-06T01:17:17;13.70;99.90
15636;DHT22;7917;50.818;6.972;2022-07-06T01:19:47;13.60;99.90
15636;DHT22;7917;50.818;6.972;2022-07-06T01:22:19;13.60;99.90
15636;DHT22;7917;50.818;6.972;2022-07-06T01:24:47;13.70;53.00
15636;DHT22;7917;50.818;6.972;2022-07-06T01:27:15;13.70;1.00
15636;DHT22;7917;50.818;6.972;2022-07-06T01:29:43;13.80;1.00
15636;DHT22;7917;50.818;6.972;2022-07-06T01:32:11;13.70;1.00
15636;DHT22;7917;50.818;6.972;2022-07-06T01:34:41;13.70;1.00
15636;DHT22;7917;50.818;6.972;2022-07-06T01:37:12;13.60;1.00
15636;DHT22;7917;50.818;6.972;2022-07-06T01:39:43;13.60;1.00
15636;DHT22;7917;50.818;6.972;2022-07-06T01:42:10;13.50;96.30
15636;DHT22;7917;50.818;6.972;2022-07-06T01:44:39;13.50;99.90
15636;DHT22;7917;50.818;6.972;2022-07-06T01:47:08;13.50;99.90
15636;DHT22;7917;50.818;6.972;2022-07-06T01:49:38;13.50;99.90
15636;DHT22;7917;50.818;6.972;2022-07-06T01:52:47;13.50;99.90
15636;DHT22;7917;50.818;6.972;2022-07-06T01:55:21;13.50;99.90
15636;DHT22;7917;50.818;6.972;2022-07-06T01:57:48;13.50;99.90
15636;DHT22;7917;50.818;6.972;2022-07-06T02:00:16;13.50;99.90
15636;DHT22;7917;50.818;6.972;2022-07-06T02:02:43;13.50;99.90
15636;DHT22;7917;50.818;6.972;2022-07-06T02:05:10;13.40;99.90
15636;DHT22;7917;50.818;6.972;2022-07-06T02:07:41;13.30;99.90
15636;DHT22;7917;50.818;6.972;2022-07-06T02:10:11;13.20;1.00
15636;DHT22;7917;50.818;6.972;2022-07-06T02:12:43;13.10;98.50
15636;DHT22;7917;50.818;6.972;2022-07-06T02:15:10;13.10;99.90
15636;DHT22;7917;50.818;6.972;2022-07-06T02:17:40;13.10;1.00
15636;DHT22;7917;50.818;6.972;2022-07-06T02:20:09;13.10;1.00
15636;DHT22;7917;50.818;6.972;2022-07-06T02:22:38;13.10;1.00
15636;DHT22;7917;50.818;6.972;2022-07-06T02:25:08;13.10;1.00
15636;DHT22;7917;50.818;6.972;2022-07-06T02:27:42;13.10;1.00
15636;DHT22;7917;50.818;6.972;2022-07-06T02:30:15;13.00;99.90
15636;DHT22;7917;50.818;6.972;2022-07-06T02:32:45;12.90;1.00
15636;DHT22;7917;50.818;6.972;2022-07-06T02:35:17;12.80;99.90
15636;DHT22;7917;50.818;6.972;2022-07-06T02:37:46;12.80;99.90
15636;DHT22;7917;50.818;6.972;2022-07-06T02:40:14;12.70;1.00
15636;DHT22;7917;50.818;6.972;2022-07-06T02:42:46;12.60;99.90
15636;DHT22;7917;50.818;6.972;2022-07-06T02:45:16;12.50;35.20
15636;DHT22;7917;50.818;6.972;2022-07-06T02:47:46;12.50;1.00
15636;DHT22;7917;50.818;6.972;2022-07-06T02:50:17;12.40;99.90
15636;DHT22;7917;50.818;6.972;2022-07-06T02:52:48;12.30;1.00
15636;DHT22;7917;50.818;6.972;2022-07-06T02:55:19;12.20;1.00
15636;DHT22;7917;50.818;6.972;2022-07-06T02:57:50;12.20;1.00
15636;DHT22;7917;50.818;6.972;2022-07-06T03:00:22;12.10;99.90
15636;DHT22;7917;50.818;6.972;2022-07-06T03:02:52;12.00;1.00
15636;DHT22;7917;50.818;6.972;2022-07-06T03:05:25;11.90;99.90
15636;DHT22;7917;50.818;6.972;2022-07-06T03:07:57;11.90;1.00
15636;DHT22;7917;50.818;6.972;2022-07-06T03:10:27;11.90;1.00
15636;DHT22;7917;50.818;6.972;2022-07-06T03:12:57;11.90;1.00
15636;DHT22;7917;50.818;6.972;2022-07-06T03:15:26;11.80;1.00
15636;DHT22;7917;50.818;6.972;2022-07-06T03:17:56;11.80;1.00
15636;DHT22;7917;50.818;6.972;2022-07-06T03:20:26;11.80;1.00
15636;DHT22;7917;50.818;6.972;2022-07-06T03:22:54;11.80;1.00
15636;DHT22;7917;50.818;6.972;2022-07-06T03:25:22;11.80;1.00
15636;DHT22;7917;50.818;6.972;2022-07-06T03:27:51;11.70;1.00
15636;DHT22;7917;50.818;6.972;2022-07-06T03:30:27;11.70;1.00
15636;DHT22;7917;50.818;6.972;2022-07-06T03:32:59;11.70;1.00
15636;DHT22;7917;50.818;6.972;2022-07-06T03:35:31;11.70;1.00
15636;DHT22;7917;50.818;6.972;2022-07-06T03:37:58;11.60;1.00
15636;DHT22;7917;50.818;6.972;2022-07-06T03:40:27;11.60;1.00
15636;DHT22;7917;50.818;6.972;2022-07-06T03:42:54;11.60;1.00
15636;DHT22;7917;50.818;6.972;2022-07-06T03:45:30;11.60;1.00
15636;DHT22;7917;50.818;6.972;2022-07-06T03:47:58;11.60;1.00
15636;DHT22;7917;50.818;6.972;2022-07-06T03:50:26;11.50;1.00
15636;DHT22;7917;50.818;6.972;2022-07-06T03:52:56;11.60;1.00
15636;DHT22;7917;50.818;6.972;2022-07-06T03:55:24;11.60;1.00
15636;DHT22;7917;50.818;6.972;2022-07-06T03:57:54;11.60;1.00
15636;DHT22;7917;50.818;6.972;2022-07-06T04:00:23;11.60;1.00
15636;DHT22;7917;50.818;6.972;2022-07-06T04:02:52;11.50;1.00
15636;DHT22;7917;50.818;6.972;2022-07-06T04:05:21;11.50;1.00
15636;DHT22;7917;50.818;6.972;2022-07-06T04:07:55;11.50;1.00
15636;DHT22;7917;50.818;6.972;2022-07-06T04:10:24;11.50;1.00
15636;DHT22;7917;50.818;6.972;2022-07-06T04:12:55;11.50;1.00
15636;DHT22;7917;50.818;6.972;2022-07-06T04:15:24;11.50;1.00
15636;DHT22;7917;50.818;6.972;2022-07-06T04:17:52;11.50;1.00
15636;DHT22;7917;50.818;6.972;2022-07-06T04:20:24;11.60;1.00
15636;DHT22;7917;50.818;6.972;2022-07-06T04:22:55;11.60;1.00
15636;DHT22;7917;50.818;6.972;2022-07-06T04:25:25;11.60;1.00
15636;DHT22;7917;50.818;6.972;2022-07-06T04:27:53;11.70;1.00
15636;DHT22;7917;50.818;6.972;2022-07-06T04:30:25;11.80;1.00
15636;DHT22;7917;50.818;6.972;2022-07-06T04:32:53;11.90;1.00
15636;DHT22;7917;50.818;6.972;2022-07-06T04:35:22;11.90;1.00
15636;DHT22;7917;50.818;6.972;2022-07-06T04:37:49;11.90;1.00
15636;DHT22;7917;50.818;6.972;2022-07-06T04:40:20;11.90;1.00
15636;DHT22;7917;50.818;6.972;2022-07-06T04:42:48;11.90;1.00
15636;DHT22;7917;50.818;6.972;2022-07-06T04:45:20;12.00;1.00
15636;DHT22;7917;50.818;6.972;2022-07-06T04:47:49;12.00;1.00
15636;DHT22;7917;50.818;6.972;2022-07-06T04:50:17;12.00;1.00
15636;DHT22;7917;50.818;6.972;2022-07-06T04:52:44;12.00;99.90
15636;DHT22;7917;50.818;6.972;2022-07-06T04:55:12;12.10;99.90
15636;DHT22;7917;50.818;6.972;2022-07-06T04:57:40;12.10;99.90
15636;DHT22;7917;50.818;6.972;2022-07-06T05:00:09;12.20;99.90
15636;DHT22;7917;50.818;6.972;2022-07-06T05:02:37;12.30;1.00
15636;DHT22;7917;50.818;6.972;2022-07-06T05:05:09;12.40;1.00
15636;DHT22;7917;50.818;6.972;2022-07-06T05:07:37;12.50;99.90
15636;DHT22;7917;50.818;6.972;2022-07-06T05:10:09;12.70;1.00
15636;DHT22;7917;50.818;6.972;2022-07-06T05:12:36;12.90;99.90
15636;DHT22;7917;50.818;6.972;2022-07-06T05:15:06;13.00;99.90
15636;DHT22;7917;50.818;6.972;2022-07-06T05:17:41;13.10;1.00
15636;DHT22;7917;50.818;6.972;2022-07-06T05:20:15;13.20;1.00
15636;DHT22;7917;50.818;6.972;2022-07-06T05:22:44;13.40;1.00
15636;DHT22;7917;50.818;6.972;2022-07-06T05:25:12;13.50;99.90
15636;DHT22;7917;50.818;6.972;2022-07-06T05:27:42;13.70;99.90
15636;DHT22;7917;50.818;6.972;2022-07-06T05:30:14;13.70;1.00
15636;DHT22;7917;50.818;6.972;2022-07-06T05:32:42;13.80;1.00
15636;DHT22;7917;50.818;6.972;2022-07-06T05:35:10;13.90;99.90
15636;DHT22;7917;50.818;6.972;2022-07-06T05:37:42;14.10;1.00
15636;DHT22;7917;50.818;6.972;2022-07-06T05:40:30;14.20;99.90
15636;DHT22;7917;50.818;6.972;2022-07-06T05:43:04;14.40;1.00
15636;DHT22;7917;50.818;6.972;2022-07-06T05:45:35;14.50;1.00
15636;DHT22;7917;50.818;6.972;2022-07-06T05:48:17;14.60;99.90
15636;DHT22;7917;50.818;6.972;2022-07-06T05:51:02;14.80;99.90
15636;DHT22;7917;50.818;6.972;2022-07-06T05:53:37;15.00;99.90
15636;DHT22;7917;50.818;6.972;2022-07-06T05:56:20;15.10;1.00
15636;DHT22;7917;50.818;6.972;2022-07-06T05:59:07;15.10;1.00
15636;DHT22;7917;50.818;6.972;2022-07-06T06:01:40;15.00;1.00
15636;DHT22;7917;50.818;6.972;2022-07-06T06:04:29;15.00;1.00
15636;DHT22;7917;50.818;6.972;2022-07-06T06:06:58;15.00;1.00
15636;DHT22;7917;50.818;6.972;2022-07-06T06:09:28;15.00;1.00
15636;DHT22;7917;50.818;6.972;2022-07-06T06:11:59;15.10;1.00
15636;DHT22;7917;50.818;6.972;2022-07-06T06:14:28;15.10;1.00
15636;DHT22;7917;50.818;6.972;2022-07-06T06:16:59;15.30;99.90
15636;DHT22;7917;50.818;6.972;2022-07-06T06:19:27;15.20;99.90
15636;DHT22;7917;50.818;6.972;2022-07-06T06:21:56;15.20;99.90
15636;DHT22;7917;50.818;6.972;2022-07-06T06:24:24;15.20;1.00
15636;DHT22;7917;50.818;6.972;2022-07-06T06:26:58;15.40;99.90
15636;DHT22;7917;50.818;6.972;2022-07-06T06:29:27;15.30;99.90
15636;DHT22;7917;50.818;6.972;2022-07-06T06:31:55;15.10;1.00
15636;DHT22;7917;50.818;6.972;2022-07-06T06:34:23;15.00;99.90
15636;DHT22;7917;50.818;6.972;2022-07-06T06:36:51;15.00;1.00
15636;DHT22;7917;50.818;6.972;2022-07-06T06:39:19;15.00;1.00
15636;DHT22;7917;50.818;6.972;2022-07-06T06:41:47;15.00;1.00
15636;DHT22;7917;50.818;6.972;2022-07-06T06:44:17;15.10;1.00
15636;DHT22;7917;50.818;6.972;2022-07-06T06:46:48;15.00;1.00
15636;DHT22;7917;50.818;6.972;2022-07-06T06:49:19;15.00;1.00
15636;DHT22;7917;50.818;6.972;2022-07-06T06:51:57;15.00;1.00
15636;DHT22;7917;50.818;6.972;2022-07-06T06:54:34;15.20;99.90
15636;DHT22;7917;50.818;6.972;2022-07-06T06:57:06;15.50;99.90
15636;DHT22;7917;50.818;6.972;2022-07-06T07:00:05;15.50;1.00
15636;DHT22;7917;50.818;6.972;2022-07-06T07:02:33;15.50;99.90
15636;DHT22;7917;50.818;6.972;2022-07-06T07:05:04;15.70;1.00
15636;DHT22;7917;50.818;6.972;2022-07-06T07:07:40;15.90;1.00
15636;DHT22;7917;50.818;6.972;2022-07-06T07:10:11;16.00;1.00
15636;DHT22;7917;50.818;6.972;2022-07-06T07:12:46;15.90;1.00
15636;DHT22;7917;50.818;6.972;2022-07-06T07:15:16;15.90;1.00
15636;DHT22;7917;50.818;6.972;2022-07-06T07:17:47;15.90;1.00
15636;DHT22;7917;50.818;6.972;2022-07-06T07:20:15;16.20;1.00
15636;DHT22;7917;50.818;6.972;2022-07-06T07:22:44;16.40;1.00
15636;DHT22;7917;50.818;6.972;2022-07-06T07:25:15;16.60;1.00
15636;DHT22;7917;50.818;6.972;2022-07-06T07:27:43;16.70;1.00
15636;DHT22;7917;50.818;6.972;2022-07-06T07:30:13;17.10;99.90
15636;DHT22;7917;50.818;6.972;2022-07-06T07:32:43;17.70;99.90
15636;DHT22;7917;50.818;6.972;2022-07-06T07:35:18;17.80;8.30
15636;DHT22;7917;50.818;6.972;2022-07-06T07:37:46;17.60;18.00
15636;DHT22;7917;50.818;6.972;2022-07-06T07:40:14;17.60;52.70
15636;DHT22;7917;50.818;6.972;2022-07-06T07:42:42;17.60;23.30
15636;DHT22;7917;50.818;6.972;2022-07-06T07:45:11;17.50;1.00
15636;DHT22;7917;50.818;6.972;2022-07-06T07:47:43;17.50;1.00
15636;DHT22;7917;50.818;6.972;2022-07-06T07:50:12;17.20;46.20
15636;DHT22;7917;50.818;6.972;2022-07-06T07:52:40;17.10;99.90
15636;DHT22;7917;50.818;6.972;2022-07-06T07:55:17;17.00;99.90
15636;DHT22;7917;50.818;6.972;2022-07-06T07:57:50;17.00;99.90
15636;DHT22;7917;50.818;6.972;2022-07-06T08:00:18;17.10;99.90
15636;DHT22;7917;50.818;6.972;2022-07-06T08:02:49;17.30;55.60
15636;DHT22;7917;50.818;6.972;2022-07-06T08:05:21;17.40;95.60
15636;DHT22;7917;50.818;6.972;2022-07-06T08:07:51;17.70;1.00
15636;DHT22;7917;50.818;6.972;2022-07-06T08:10:20;17.90;21.80
15636;DHT22;7917;50.818;6.972;2022-07-06T08:12:48;18.00;1.00
15636;DHT22;7917;50.818;6.972;2022-07-06T08:15:16;18.00;1.00
15636;DHT22;7917;50.818;6.972;2022-07-06T08:17:43;18.00;1.00
15636;DHT22;7917;50.818;6.972;2022-07-06T08:20:14;17.90;1.00
15636;DHT22;7917;50.818;6.972;2022-07-06T08:22:42;17.70;1.00
15636;DHT22;7917;50.818;6.972;2022-07-06T08:25:10;17.90;37.80
15636;DHT22;7917;50.818;6.972;2022-07-06T08:27:38;18.30;1.00
15636;DHT22;7917;50.818;6.972;2022-07-06T08:30:08;18.20;1.00
15636;DHT22;7917;50.818;6.972;2022-07-06T08:32:38;18.20;1.00
15636;DHT22;7917;50.818;6.972;2022-07-06T08:35:07;18.10;1.00
15636;DHT22;7917;50.818;6.972;2022-07-06T08:37:39;18.00;1.00
15636;DHT22;7917;50.818;6.972;2022-07-06T08:40:10;17.90;1.10
15636;DHT22;7917;50.818;6.972;2022-07-06T08:42:38;18.00;99.90
15636;DHT22;7917;50.818;6.972;2022-07-06T08:45:07;18.00;45.00
15636;DHT22;7917;50.818;6.972;2022-07-06T08:47:36;17.90;37.10
15636;DHT22;7917;50.818;6.972;2022-07-06T08:50:05;17.90;47.90
15636;DHT22;7917;50.818;6.972;2022-07-06T08:52:35;17.90;98.40
15636;DHT22;7917;50.818;6.972;2022-07-06T08:55:11;18.10;1.00
15636;DHT22;7917;50.818;6.972;2022-07-06T08:57:46;18.30;1.00
15636;DHT22;7917;50.818;6.972;2022-07-06T09:00:15;18.30;1.00
15636;DHT22;7917;50.818;6.972;2022-07-06T09:02:45;18.20;1.00
15636;DHT22;7917;50.818;6.972;2022-07-06T09:05:16;18.10;1.00
15636;DHT22;7917;50.818;6.972;2022-07-06T09:07:46;17.80;1.00
15636;DHT22;7917;50.818;6.972;2022-07-06T09:10:19;17.60;1.00
15636;DHT22;7917;50.818;6.972;2022-07-06T09:12:48;17.60;1.00
15636;DHT22;7917;50.818;6.972;2022-07-06T09:15:16;17.50;1.00
15636;DHT22;7917;50.818;6.972;2022-07-06T09:17:44;17.70;20.80
15636;DHT22;7917;50.818;6.972;2022-07-06T09:20:13;17.70;1.00
15636;DHT22;7917;50.818;6.972;2022-07-06T09:22:42;17.70;1.00
15636;DHT22;7917;50.818;6.972;2022-07-06T09:25:13;17.70;1.00
15636;DHT22;7917;50.818;6.972;2022-07-06T09:27:48;17.60;1.00
15636;DHT22;7917;50.818;6.972;2022-07-06T09:30:21;17.90;1.00
15636;DHT22;7917;50.818;6.972;2022-07-06T09:32:53;18.00;1.00
15636;DHT22;7917;50.818;6.972;2022-07-06T09:35:24;18.30;1.00
15636;DHT22;7917;50.818;6.972;2022-07-06T09:38:03;18.30;1.00
15636;DHT22;7917;50.818;6.972;2022-07-06T09:40:33;18.30;1.00
15636;DHT22;7917;50.818;6.972;2022-07-06T09:43:14;18.00;1.00
15636;DHT22;7917;50.818;6.972;2022-07-06T09:45:47;18.30;1.00
15636;DHT22;7917;50.818;6.972;2022-07-06T09:48:18;18.40;1.00
15636;DHT22;7917;50.818;6.972;2022-07-06T09:50:51;18.40;1.00
15636;DHT22;7917;50.818;6.972;2022-07-06T09:53:26;18.20;1.00
15636;DHT22;7917;50.818;6.972;2022-07-06T09:55:55;18.30;1.00
15636;DHT22;7917;50.818;6.972;2022-07-06T09:58:31;18.50;1.00
15636;DHT22;7917;50.818;6.972;2022-07-06T10:00:59;18.50;1.00
15636;DHT22;7917;50.818;6.972;2022-07-06T10:03:27;18.40;1.00
15636;DHT22;7917;50.818;6.972;2022-07-06T10:05:56;18.50;1.00
15636;DHT22;7917;50.818;6.972;2022-07-06T10:08:27;18.50;1.00
15636;DHT22;7917;50.818;6.972;2022-07-06T10:10:56;18.70;1.00
15636;DHT22;7917;50.818;6.972;2022-07-06T10:13:25;18.60;1.00
15636;DHT22;7917;50.818;6.972;2022-07-06T10:15:56;18.60;1.00
15636;DHT22;7917;50.818;6.972;2022-07-06T10:18:26;18.60;1.00
15636;DHT22;7917;50.818;6.972;2022-07-06T10:20:56;18.70;1.00
15636;DHT22;7917;50.818;6.972;2022-07-06T10:23:24;18.70;1.00
15636;DHT22;7917;50.818;6.972;2022-07-06T10:25:55;18.80;1.00
15636;DHT22;7917;50.818;6.972;2022-07-06T10:28:24;19.20;1.00
15636;DHT22;7917;50.818;6.972;2022-07-06T10:30:53;19.20;1.00
15636;DHT22;7917;50.818;6.972;2022-07-06T10:33:22;19.00;1.00
15636;DHT22;7917;50.818;6.972;2022-07-06T10:35:52;19.00;1.00
15636;DHT22;7917;50.818;6.972;2022-07-06T10:38:31;19.20;1.00
15636;DHT22;7917;50.818;6.972;2022-07-06T10:41:06;19.40;1.00
15636;DHT22;7917;50.818;6.972;2022-07-06T10:43:36;19.60;1.00
15636;DHT22;7917;50.818;6.972;2022-07-06T10:46:08;19.90;1.00
15636;DHT22;7917;50.818;6.972;2022-07-06T10:48:41;20.10;1.00
15636;DHT22;7917;50.818;6.972;2022-07-06T10:51:12;20.40;1.00
15636;DHT22;7917;50.818;6.972;2022-07-06T10:53:56;20.50;1.00
15636;DHT22;7917;50.818;6.972;2022-07-06T10:56:33;20.60;99.90
15636;DHT22;7917;50.818;6.972;2022-07-06T10:59:09;20.50;1.00
15636;DHT22;7917;50.818;6.972;2022-07-06T11:01:38;20.80;1.00
15636;DHT22;7917;50.818;6.972;2022-07-06T11:04:11;21.00;99.90
15636;DHT22;7917;50.818;6.972;2022-07-06T11:06:39;21.00;99.90
15636;DHT22;7917;50.818;6.972;2022-07-06T11:09:08;20.70;99.90
15636;DHT22;7917;50.818;6.972;2022-07-06T11:11:39;20.70;1.00
15636;DHT22;7917;50.818;6.972;2022-07-06T11:14:12;21.40;99.90
15636;DHT22;7917;50.818;6.972;2022-07-06T11:17:00;21.70;99.90
15636;DHT22;7917;50.818;6.972;2022-07-06T11:19:30;21.60;99.90
15636;DHT22;7917;50.818;6.972;2022-07-06T11:22:05;21.70;99.90
15636;DHT22;7917;50.818;6.972;2022-07-06T11:24:37;21.50;99.90
15636;DHT22;7917;50.818;6.972;2022-07-06T11:27:05;21.30;99.90
15636;DHT22;7917;50.818;6.972;2022-07-06T11:29:35;21.10;99.90
15636;DHT22;7917;50.818;6.972;2022-07-06T11:32:06;21.10;99.90
15636;DHT22;7917;50.818;6.972;2022-07-06T11:34:38;21.80;99.90
15636;DHT22;7917;50.818;6.972;2022-07-06T11:37:08;21.80;99.90
15636;DHT22;7917;50.818;6.972;2022-07-06T11:39:39;21.80;99.90
15636;DHT22;7917;50.818;6.972;2022-07-06T11:42:08;22.00;99.90
15636;DHT22;7917;50.818;6.972;2022-07-06T11:44:38;22.30;99.90
15636;DHT22;7917;50.818;6.972;2022-07-06T11:47:07;22.40;99.90
15636;DHT22;7917;50.818;6.972;2022-07-06T11:49:39;22.50;99.90
15636;DHT22;7917;50.818;6.972;2022-07-06T11:52:13;22.70;99.90
15636;DHT22;7917;50.818;6.972;2022-07-06T11:54:42;22.50;99.90
15636;DHT22;7917;50.818;6.972;2022-07-06T11:57:10;22.30;99.90
15636;DHT22;7917;50.818;6.972;2022-07-06T11:59:40;21.80;99.90
15636;DHT22;7917;50.818;6.972;2022-07-06T12:02:09;21.70;99.90
15636;DHT22;7917;50.818;6.972;2022-07-06T12:04:44;22.10;99.90
15636;DHT22;7917;50.818;6.972;2022-07-06T12:07:16;22.20;99.90
15636;DHT22;7917;50.818;6.972;2022-07-06T12:09:45;22.10;99.90
15636;DHT22;7917;50.818;6.972;2022-07-06T12:12:14;22.30;99.90
15636;DHT22;7917;50.818;6.972;2022-07-06T12:14:43;22.40;99.90
15636;DHT22;7917;50.818;6.972;2022-07-06T12:17:14;22.00;99.90
15636;DHT22;7917;50.818;6.972;2022-07-06T12:19:56;21.20;99.90
15636;DHT22;7917;50.818;6.972;2022-07-06T12:22:34;21.10;99.90
15636;DHT22;7917;50.818;6.972;2022-07-06T12:25:05;20.80;99.90
15636;DHT22;7917;50.818;6.972;2022-07-06T12:27:35;21.00;99.90
15636;DHT22;7917;50.818;6.972;2022-07-06T12:30:11;21.10;99.90
15636;DHT22;7917;50.818;6.972;2022-07-06T12:32:45;21.10;99.90
15636;DHT22;7917;50.818;6.972;2022-07-06T12:35:23;21.30;99.90
15636;DHT22;7917;50.818;6.972;2022-07-06T12:37:57;21.30;99.90
15636;DHT22;7917;50.818;6.972;2022-07-06T12:40:36;21.20;99.90
15636;DHT22;7917;50.818;6.972;2022-07-06T12:43:04;21.20;99.90
15636;DHT22;7917;50.818;6.972;2022-07-06T12:45:31;21.30;99.90
15636;DHT22;7917;50.818;6.972;2022-07-06T12:48:00;21.30;99.90
15636;DHT22;7917;50.818;6.972;2022-07-06T12:50:33;21.40;99.90
15636;DHT22;7917;50.818;6.972;2022-07-06T12:53:02;21.50;99.90
15636;DHT22;7917;50.818;6.972;2022-07-06T12:55:32;21.20;99.90
15636;DHT22;7917;50.818;6.972;2022-07-06T12:58:00;21.30;99.90
15636;DHT22;7917;50.818;6.972;2022-07-06T13:00:44;21.40;99.90
15636;DHT22;7917;50.818;6.972;2022-07-06T13:03:12;21.60;99.90
15636;DHT22;7917;50.818;6.972;2022-07-06T13:05:49;22.00;99.90
15636;DHT22;7917;50.818;6.972;2022-07-06T13:08:18;22.50;99.90
15636;DHT22;7917;50.818;6.972;2022-07-06T13:10:47;22.70;99.90
15636;DHT22;7917;50.818;6.972;2022-07-06T13:13:15;22.70;99.90
15636;DHT22;7917;50.818;6.972;2022-07-06T13:15:44;22.30;99.90
15636;DHT22;7917;50.818;6.972;2022-07-06T13:18:12;22.70;99.90
15636;DHT22;7917;50.818;6.972;2022-07-06T13:20:47;22.40;99.90
15636;DHT22;7917;50.818;6.972;2022-07-06T13:23:14;22.20;99.90
15636;DHT22;7917;50.818;6.972;2022-07-06T13:25:44;22.30;99.90
15636;DHT22;7917;50.818;6.972;2022-07-06T13:28:13;22.50;99.90
15636;DHT22;7917;50.818;6.972;2022-07-06T13:30:41;22.50;99.90
15636;DHT22;7917;50.818;6.972;2022-07-06T13:33:12;22.70;99.90
15636;DHT22;7917;50.818;6.972;2022-07-06T13:35:40;22.80;99.90
15636;DHT22;7917;50.818;6.972;2022-07-06T13:38:13;22.70;99.90
15636;DHT22;7917;50.818;6.972;2022-07-06T13:40:44;22.60;99.90
15636;DHT22;7917;50.818;6.972;2022-07-06T13:43:16;22.50;99.90
15636;DHT22;7917;50.818;6.972;2022-07-06T13:45:46;22.70;99.90
15636;DHT22;7917;50.818;6.972;2022-07-06T13:48:13;23.00;99.90
15636;DHT22;7917;50.818;6.972;2022-07-06T13:50:41;23.10;99.90
15636;DHT22;7917;50.818;6.972;2022-07-06T13:53:09;22.80;99.90
15636;DHT22;7917;50.818;6.972;2022-07-06T13:55:42;22.70;99.90
15636;DHT22;7917;50.818;6.972;2022-07-06T13:58:12;22.80;99.90
15636;DHT22;7917;50.818;6.972;2022-07-06T14:00:40;22.80;99.90
15636;DHT22;7917;50.818;6.972;2022-07-06T14:03:08;22.50;99.90
15636;DHT22;7917;50.818;6.972;2022-07-06T14:05:38;22.50;99.90
15636;DHT22;7917;50.818;6.972;2022-07-06T14:08:06;22.30;99.90
15636;DHT22;7917;50.818;6.972;2022-07-06T14:10:35;22.40;99.90
15636;DHT22;7917;50.818;6.972;2022-07-06T14:13:05;22.80;99.90
15636;DHT22;7917;50.818;6.972;2022-07-06T14:15:36;23.30;99.90
15636;DHT22;7917;50.818;6.972;2022-07-06T14:18:05;23.10;99.90
15636;DHT22;7917;50.818;6.972;2022-07-06T14:20:33;23.00;99.90
15636;DHT22;7917;50.818;6.972;2022-07-06T14:23:02;22.90;99.90
15636;DHT22;7917;50.818;6.972;2022-07-06T14:25:31;23.20;99.90
15636;DHT22;7917;50.818;6.972;2022-07-06T14:27:59;23.50;99.90
15636;DHT22;7917;50.818;6.972;2022-07-06T14:30:32;23.50;99.90
15636;DHT22;7917;50.818;6.972;2022-07-06T14:33:03;23.70;99.90
15636;DHT22;7917;50.818;6.972;2022-07-06T14:35:35;24.30;99.90
15636;DHT22;7917;50.818;6.972;2022-07-06T14:38:04;24.60;99.90
15636;DHT22;7917;50.818;6.972;2022-07-06T14:40:34;24.70;99.90
15636;DHT22;7917;50.818;6.972;2022-07-06T14:43:04;25.60;99.90
15636;DHT22;7917;50.818;6.972;2022-07-06T14:45:35;26.30;99.90
15636;DHT22;7917;50.818;6.972;2022-07-06T14:48:05;26.80;99.90
15636;DHT22;7917;50.818;6.972;2022-07-06T14:50:35;26.40;99.90
15636;DHT22;7917;50.818;6.972;2022-07-06T14:53:05;25.80;99.90
15636;DHT22;7917;50.818;6.972;2022-07-06T14:55:33;25.90;99.90
15636;DHT22;7917;50.818;6.972;2022-07-06T14:58:02;25.20;99.90
15636;DHT22;7917;50.818;6.972;2022-07-06T15:00:33;24.80;99.90
15636;DHT22;7917;50.818;6.972;2022-07-06T15:03:01;24.70;99.90
15636;DHT22;7917;50.818;6.972;2022-07-06T15:05:30;24.60;99.90
15636;DHT22;7917;50.818;6.972;2022-07-06T15:07:58;25.10;99.90
15636;DHT22;7917;50.818;6.972;2022-07-06T15:10:28;26.20;99.90
15636;DHT22;7917;50.818;6.972;2022-07-06T15:13:00;27.10;99.90
15636;DHT22;7917;50.818;6.972;2022-07-06T15:15:32;28.10;99.90
15636;DHT22;7917;50.818;6.972;2022-07-06T15:18:00;28.10;99.90
15636;DHT22;7917;50.818;6.972;2022-07-06T15:20:28;28.20;99.90
15636;DHT22;7917;50.818;6.972;2022-07-06T15:22:55;28.30;99.90
15636;DHT22;7917;50.818;6.972;2022-07-06T15:25:23;28.70;99.90
15636;DHT22;7917;50.818;6.972;2022-07-06T15:27:51;28.40;99.90
15636;DHT22;7917;50.818;6.972;2022-07-06T15:30:20;28.70;99.90
15636;DHT22;7917;50.818;6.972;2022-07-06T15:32:50;28.40;99.90
15636;DHT22;7917;50.818;6.972;2022-07-06T15:35:18;28.90;99.90
15636;DHT22;7917;50.818;6.972;2022-07-06T15:37:46;28.80;99.90
15636;DHT22;7917;50.818;6.972;2022-07-06T15:40:14;29.00;99.90
15636;DHT22;7917;50.818;6.972;2022-07-06T15:42:47;28.70;99.90
15636;DHT22;7917;50.818;6.972;2022-07-06T15:45:15;28.20;99.90
15636;DHT22;7917;50.818;6.972;2022-07-06T15:47:43;28.70;99.90
15636;DHT22;7917;50.818;6.972;2022-07-06T15:50:12;29.10;99.90
15636;DHT22;7917;50.818;6.972;2022-07-06T15:52:41;29.30;99.90
15636;DHT22;7917;50.818;6.972;2022-07-06T15:55:10;29.10;99.90
15636;DHT22;7917;50.818;6.972;2022-07-06T15:57:38;28.80;99.90
15636;DHT22;7917;50.818;6.972;2022-07-06T16:00:07;28.60;99.90
15636;DHT22;7917;50.818;6.972;2022-07-06T16:02:38;28.80;99.90
15636;DHT22;7917;50.818;6.972;2022-07-06T16:05:06;29.00;99.90
15636;DHT22;7917;50.818;6.972;2022-07-06T16:07:36;29.10;99.90
15636;DHT22;7917;50.818;6.972;2022-07-06T16:10:04;28.90;99.90
15636;DHT22;7917;50.818;6.972;2022-07-06T16:12:32;29.20;99.90
15636;DHT22;7917;50.818;6.972;2022-07-06T16:15:00;28.80;99.90